Archival Weather

Dallas-Fort Worth Intl

Dallas-Fort Worth, Texas (KDFW)

Report from: Thursday, February 22, 2024 3:53 AM CST
Current time: Tuesday, April 23, 2024 2:23 AM CDT

Current weather – Weather history – Daily summaries
Weather forecast

Temperature17.8°C (64.0°F)
Dew point15.0°C (59.0°F)
Winds 15 kts (7.7 m/s, 17.3 mph) South (190°)
Visibility10 mi. (16.1 km)
Clouds Few clouds 2,000 ft. (610 m)
Scattered clouds 25,000 ft. (7,620 m)
Altimeter29.76 in.Hg (1008 mB)
Relative humidity84 %
Density altitude776 ft. (237 m)
Sea-level pressure100.7 kPa (1007 mB, 29.74 in.Hg)
Remarks Automated weather observing station with precipitation discriminator
Flight conditions Visual Meteorological Conditions
Raw dataKDFW 220953Z 19015KT 10SM FEW020 SCT250 18/15 A2976 RMK AO2 SLP070 T01780150
An error has occurred. This application may no longer respond until reloaded. Reload 🗙